Time;durP1;ratioP1;P1;durP2;ratioP2;P2;SDS_P1;SDS_P2;PMS_P1;PMS_P2;Temp;Humidity;BMP_temperature;BMP_pressure;BME280_temperature;BME280_humidity;BME280_pressure;Samples;Min_cycle;Max_cycle;Signal;HPM_P1;HPM_P2
2023/06/28 00:01:44;;;;;;;19.70;19.00;;;23.70;59.50;;;;;;4974143;28;20543;-63
2023/06/28 00:04:11;;;;;;;20.23;19.53;;;23.60;59.70;;;;;;4974050;28;20538;-63
2023/06/28 00:06:38;;;;;;;19.70;18.90;;;23.60;59.70;;;;;;4973796;28;20506;-64
2023/06/28 00:09:05;;;;;;;19.83;19.03;;;23.60;59.50;;;;;;4973748;28;20488;-64
2023/06/28 00:11:31;;;;;;;21.37;20.57;;;23.60;59.20;;;;;;4974013;28;20957;-64
2023/06/28 00:13:58;;;;;;;20.33;19.63;;;23.60;59.10;;;;;;4973840;28;20483;-63
2023/06/28 00:16:27;;;;;;;19.20;18.60;;;23.60;59.00;;;;;;4973708;28;20555;-64
2023/06/28 00:19:00;;;;;;;19.47;18.70;;;23.50;58.90;;;;;;4973225;28;20487;-63
2023/06/28 00:21:27;;;;;;;21.60;20.80;;;23.50;58.80;;;;;;4973394;28;20829;-64
2023/06/28 00:23:54;;;;;;;20.53;19.83;;;23.50;58.80;;;;;;4973733;28;20475;-64
2023/06/28 00:26:21;;;;;;;19.40;18.77;;;23.50;58.80;;;;;;4973428;28;20551;-64
2023/06/28 00:28:48;;;;;;;19.10;18.50;;;23.50;58.70;;;;;;4973585;28;20448;-63
2023/06/28 00:31:15;;;;;;;18.70;18.00;;;23.50;59.10;;;;;;4973532;28;20494;-63
2023/06/28 00:33:43;;;;;;;18.63;18.03;;;23.50;59.40;;;;;;4973583;28;20992;-64
2023/06/28 00:36:10;;;;;;;19.07;18.40;;;23.50;59.30;;;;;;4973295;28;20551;-64
2023/06/28 00:38:37;;;;;;;20.93;20.20;;;23.40;59.10;;;;;;4973202;28;20491;-64
2023/06/28 00:41:04;;;;;;;21.00;20.30;;;23.40;59.00;;;;;;4973575;28;20499;-64
2023/06/28 00:43:31;;;;;;;21.87;20.90;;;23.40;59.10;;;;;;4973115;28;20491;-64
2023/06/28 00:45:58;;;;;;;21.17;20.37;;;23.40;59.10;;;;;;4973178;28;20496;-64
2023/06/28 00:48:25;;;;;;;20.80;19.97;;;23.40;59.20;;;;;;4973278;28;20483;-64
2023/06/28 00:50:54;;;;;;;19.20;18.50;;;23.40;59.10;;;;;;4973101;28;20487;-63
2023/06/28 00:53:21;;;;;;;19.80;18.90;;;23.40;59.10;;;;;;4973235;28;20479;-64
2023/06/28 00:55:48;;;;;;;19.90;19.17;;;23.40;59.10;;;;;;4972856;28;20567;-63
2023/06/28 00:58:14;;;;;;;19.43;18.63;;;23.40;58.80;;;;;;4973171;28;20486;-63
2023/06/28 01:00:44;;;;;;;21.77;20.87;;;23.40;58.80;;;;;;4972742;28;20483;-64
2023/06/28 01:03:11;;;;;;;20.43;19.73;;;23.40;58.80;;;;;;4973126;28;20455;-63
2023/06/28 01:05:38;;;;;;;20.80;20.10;;;23.30;58.80;;;;;;4972908;28;20492;-63
2023/06/28 01:08:07;;;;;;;21.20;20.50;;;23.30;58.80;;;;;;4973052;28;20615;-63
2023/06/28 01:10:36;;;;;;;19.37;18.70;;;23.30;58.80;;;;;;4972882;28;20543;-64
2023/06/28 01:13:04;;;;;;;19.50;18.60;;;23.30;58.90;;;;;;4972950;28;20444;-63
2023/06/28 01:15:31;;;;;;;20.40;19.60;;;23.30;58.90;;;;;;4972680;28;20541;-63
2023/06/28 01:18:00;;;;;;;20.40;19.47;;;23.30;59.10;;;;;;4972953;28;20484;-63
2023/06/28 01:20:30;;;;;;;19.27;18.53;;;23.30;59.20;;;;;;4972645;28;20452;-63
2023/06/28 01:22:58;;;;;;;19.03;18.33;;;23.30;59.20;;;;;;4973396;28;20992;-63
2023/06/28 01:25:25;;;;;;;19.33;18.60;;;23.30;59.30;;;;;;4972855;28;20495;-63
2023/06/28 01:27:52;;;;;;;20.30;19.50;;;23.20;59.30;;;;;;4972610;28;20490;-63
2023/06/28 01:30:23;;;;;;;19.57;18.87;;;23.20;59.40;;;;;;4953550;28;20468;-63
2023/06/28 01:32:51;;;;;;;20.23;19.50;;;23.30;59.40;;;;;;4953479;28;20922;-63
2023/06/28 01:35:18;;;;;;;19.23;18.63;;;23.20;59.50;;;;;;4957292;28;20861;-63
2023/06/28 01:37:45;;;;;;;19.90;19.20;;;23.20;59.80;;;;;;4957370;28;20539;-63
2023/06/28 01:40:15;;;;;;;22.87;21.77;;;23.20;60.50;;;;;;4994038;28;20487;-63
2023/06/28 01:42:42;;;;;;;19.87;19.17;;;23.20;60.90;;;;;;4996048;28;20486;-64
2023/06/28 01:45:10;;;;;;;21.30;20.60;;;23.20;61.10;;;;;;4996090;28;20562;-64
2023/06/28 01:47:38;;;;;;;18.77;18.07;;;23.10;61.60;;;;;;4995936;28;20482;-64
2023/06/28 01:50:06;;;;;;;21.43;20.37;;;23.10;61.80;;;;;;4979512;28;20555;-63
2023/06/28 01:52:33;;;;;;;19.87;19.07;;;23.10;62.10;;;;;;4976557;28;20483;-63
2023/06/28 01:55:00;;;;;;;19.43;18.83;;;23.10;62.20;;;;;;4976287;28;20921;-63
2023/06/28 01:57:28;;;;;;;19.50;18.90;;;23.00;62.30;;;;;;4993866;28;20483;-63
2023/06/28 01:59:55;;;;;;;19.67;18.97;;;23.00;62.60;;;;;;4995860;28;21003;-64
2023/06/28 02:02:22;;;;;;;19.30;18.60;;;23.00;62.70;;;;;;4995744;28;20451;-63
2023/06/28 02:04:49;;;;;;;19.97;19.27;;;23.00;63.20;;;;;;4995708;28;20475;-64
2023/06/28 02:07:16;;;;;;;19.57;18.93;;;23.00;63.20;;;;;;4977852;28;20504;-63
2023/06/28 02:09:43;;;;;;;19.20;18.50;;;23.00;63.00;;;;;;4976352;28;20952;-64
2023/06/28 02:12:11;;;;;;;19.10;18.50;;;22.90;63.20;;;;;;4976226;28;20591;-64
2023/06/28 02:14:39;;;;;;;18.70;18.10;;;22.90;63.20;;;;;;4976164;28;20877;-63
2023/06/28 02:17:13;;;;;;;20.00;19.30;;;22.90;63.40;;;;;;4975127;28;20471;-63
2023/06/28 02:19:41;;;;;;;19.90;19.20;;;22.80;63.50;;;;;;4956805;29;20452;-64
2023/06/28 02:22:08;;;;;;;19.03;18.33;;;22.90;63.80;;;;;;4956689;29;20480;-64
2023/06/28 02:24:35;;;;;;;19.63;18.93;;;22.90;63.80;;;;;;4956622;29;20448;-64
2023/06/28 02:27:02;;;;;;;20.33;19.60;;;22.80;63.80;;;;;;4971630;28;20464;-62
2023/06/28 02:29:29;;;;;;;19.60;18.80;;;22.80;63.80;;;;;;4975935;28;20459;-64
2023/06/28 02:31:58;;;;;;;19.07;18.33;;;22.80;64.20;;;;;;4975813;28;20475;-63
2023/06/28 02:34:25;;;;;;;18.43;17.83;;;22.80;64.60;;;;;;4975530;28;21020;-63
2023/06/28 02:36:51;;;;;;;20.47;19.77;;;22.70;64.70;;;;;;4975317;28;20582;-63
2023/06/28 02:39:18;;;;;;;19.87;19.17;;;22.70;65.20;;;;;;4975804;28;20479;-64
2023/06/28 02:41:46;;;;;;;20.20;19.40;;;22.70;65.50;;;;;;4975775;28;20535;-64
2023/06/28 02:44:12;;;;;;;19.97;19.17;;;22.70;65.90;;;;;;4993771;28;20538;-63
2023/06/28 02:46:39;;;;;;;19.10;18.40;;;22.60;66.10;;;;;;4994788;28;20491;-63
2023/06/28 02:49:08;;;;;;;20.73;19.93;;;22.60;66.20;;;;;;4995014;28;20471;-64
2023/06/28 02:51:35;;;;;;;19.93;19.17;;;22.60;67.00;;;;;;4994880;28;20513;-63
2023/06/28 02:54:02;;;;;;;19.60;18.90;;;22.60;67.60;;;;;;4982155;28;20475;-63
2023/06/28 02:56:29;;;;;;;19.40;18.70;;;22.60;67.80;;;;;;4994438;28;20953;-63
2023/06/28 02:58:56;;;;;;;20.93;20.13;;;22.60;68.20;;;;;;4994833;28;20498;-64
2023/06/28 03:01:24;;;;;;;20.00;19.40;;;22.50;68.50;;;;;;4994956;28;20478;-63
2023/06/28 03:03:51;;;;;;;19.57;18.87;;;22.50;69.20;;;;;;4979276;28;20790;-64
2023/06/28 03:06:19;;;;;;;21.17;20.33;;;22.50;69.50;;;;;;4994039;28;20506;-64
2023/06/28 03:08:46;;;;;;;21.57;20.57;;;22.50;70.20;;;;;;4994686;28;20869;-64
2023/06/28 03:11:13;;;;;;;19.97;19.17;;;22.50;70.90;;;;;;4994466;28;20474;-63
2023/06/28 03:13:40;;;;;;;19.67;18.77;;;22.50;71.60;;;;;;4993869;28;20479;-63
2023/06/28 03:16:08;;;;;;;19.73;19.13;;;22.50;72.10;;;;;;4994217;28;20552;-63
2023/06/28 03:18:35;;;;;;;19.93;19.13;;;22.50;72.80;;;;;;4994494;28;20447;-64
2023/06/28 03:21:02;;;;;;;21.00;20.20;;;22.50;73.40;;;;;;4994402;28;20478;-63
2023/06/28 03:23:30;;;;;;;20.60;19.57;;;22.50;73.80;;;;;;4994422;28;20481;-63
2023/06/28 03:25:57;;;;;;;21.17;20.17;;;22.40;74.60;;;;;;4994260;28;20510;-64
2023/06/28 03:28:24;;;;;;;20.53;19.63;;;22.40;74.90;;;;;;4994201;28;20968;-63
2023/06/28 03:30:50;;;;;;;21.47;20.57;;;22.50;75.40;;;;;;4994241;28;20885;-64
2023/06/28 03:33:17;;;;;;;20.53;19.83;;;22.40;75.80;;;;;;4993392;28;20489;-63
2023/06/28 03:35:44;;;;;;;22.00;21.10;;;22.40;75.90;;;;;;4993825;28;20577;-63
2023/06/28 03:38:11;;;;;;;20.57;19.57;;;22.30;76.00;;;;;;4993966;28;20533;-64
2023/06/28 03:40:39;;;;;;;21.27;20.43;;;22.30;76.30;;;;;;4993606;28;20493;-63
2023/06/28 03:43:06;;;;;;;19.90;19.17;;;22.30;76.40;;;;;;4993902;28;20481;-63
2023/06/28 03:45:33;;;;;;;20.67;19.97;;;22.40;75.90;;;;;;4993758;28;20490;-63
2023/06/28 03:48:00;;;;;;;21.43;20.37;;;22.30;75.80;;;;;;4993784;28;20455;-63
2023/06/28 03:50:27;;;;;;;21.70;20.90;;;22.40;76.20;;;;;;4993485;28;20888;-63
2023/06/28 03:52:54;;;;;;;20.47;19.73;;;22.30;75.80;;;;;;4974311;28;20511;-63
2023/06/28 03:55:21;;;;;;;21.83;20.73;;;22.30;76.70;;;;;;4973705;28;20519;-64
2023/06/28 03:57:49;;;;;;;21.07;20.27;;;22.30;76.80;;;;;;4973647;28;20486;-63
2023/06/28 04:00:17;;;;;;;20.87;20.17;;;22.20;77.20;;;;;;4974348;28;20885;-63
2023/06/28 04:02:44;;;;;;;21.97;21.23;;;22.30;77.10;;;;;;4974105;28;20484;-63
2023/06/28 04:05:11;;;;;;;22.13;21.27;;;22.20;77.50;;;;;;4974077;28;21024;-63
2023/06/28 04:07:38;;;;;;;23.07;22.27;;;22.30;77.50;;;;;;4974092;28;20546;-63
2023/06/28 04:10:06;;;;;;;23.10;22.07;;;22.20;77.70;;;;;;4973945;28;20535;-64
2023/06/28 04:12:33;;;;;;;23.30;22.40;;;22.30;77.80;;;;;;4973686;28;20480;-64
2023/06/28 04:15:01;;;;;;;23.90;23.00;;;22.30;77.70;;;;;;4973830;28;20483;-63
2023/06/28 04:17:28;;;;;;;22.30;21.60;;;22.30;77.90;;;;;;4973749;28;20850;-63
2023/06/28 04:19:55;;;;;;;23.43;22.50;;;22.30;78.10;;;;;;4973866;28;20483;-63
2023/06/28 04:22:22;;;;;;;23.57;22.37;;;22.30;78.30;;;;;;4973578;28;20490;-63
2023/06/28 04:24:49;;;;;;;22.97;22.17;;;22.20;78.20;;;;;;4973717;28;20486;-63
2023/06/28 04:27:15;;;;;;;22.20;21.47;;;22.30;78.60;;;;;;4973368;28;20551;-63
2023/06/28 04:29:42;;;;;;;23.00;22.00;;;22.20;78.40;;;;;;4973676;28;20475;-63
2023/06/28 04:32:23;;;;;;;22.50;21.70;;;22.20;78.10;;;;;;4973510;28;20479;-64
2023/06/28 04:34:52;;;;;;;22.70;21.90;;;22.20;77.80;;;;;;4973627;28;20459;-64
2023/06/28 04:37:20;;;;;;;24.87;23.47;;;22.20;77.70;;;;;;4975831;28;20478;-63
2023/06/28 04:39:47;;;;;;;22.57;21.67;;;22.20;78.00;;;;;;4981169;28;20490;-65
2023/06/28 04:42:15;;;;;;;23.43;22.53;;;22.30;77.60;;;;;;4992801;28;20455;-64
2023/06/28 04:44:43;;;;;;;22.80;21.80;;;22.40;77.70;;;;;;4992830;28;20450;-65
2023/06/28 04:47:15;;;;;;;22.50;21.43;;;22.50;77.70;;;;;;4992461;28;21054;-65
2023/06/28 04:49:46;;;;;;;23.80;22.83;;;22.60;76.20;;;;;;4992741;28;20536;-65
2023/06/28 04:52:13;;;;;;;23.13;22.23;;;22.60;75.50;;;;;;4992720;28;20815;-65
2023/06/28 04:54:41;;;;;;;21.43;20.40;;;22.70;75.10;;;;;;4992525;28;20471;-65
2023/06/28 04:57:08;;;;;;;23.03;22.13;;;22.70;74.50;;;;;;4994329;23;20500;-56
2023/06/28 04:59:35;;;;;;;22.53;21.73;;;22.70;73.90;;;;;;4967731;28;20486;-55
2023/06/28 05:02:05;;;;;;;22.83;21.93;;;22.80;73.60;;;;;;4973069;28;20535;-60
2023/06/28 05:04:32;;;;;;;22.00;21.20;;;22.80;73.10;;;;;;4973211;28;20490;-60
2023/06/28 05:07:03;;;;;;;22.60;21.83;;;22.90;72.80;;;;;;4972811;28;20470;-55
2023/06/28 05:09:30;;;;;;;22.50;21.60;;;22.90;72.40;;;;;;4973630;28;20838;-62
2023/06/28 05:11:57;;;;;;;22.70;21.90;;;22.90;72.00;;;;;;4972933;28;20494;-56
2023/06/28 05:14:25;;;;;;;23.20;22.40;;;22.90;71.60;;;;;;4972971;28;20888;-58
2023/06/28 05:16:52;;;;;;;23.23;22.30;;;22.90;71.20;;;;;;4972536;28;20579;-53
2023/06/28 05:19:19;;;;;;;24.23;23.40;;;22.90;70.90;;;;;;4973143;28;20480;-61
2023/06/28 05:21:46;;;;;;;23.80;23.00;;;22.90;70.60;;;;;;4972893;28;20823;-59
2023/06/28 05:24:15;;;;;;;24.40;23.30;;;23.00;70.30;;;;;;4972717;28;20538;-60
2023/06/28 05:26:42;;;;;;;23.07;22.20;;;23.00;70.10;;;;;;4972569;28;20495;-60
2023/06/28 05:29:09;;;;;;;22.13;21.20;;;23.00;69.90;;;;;;4972761;28;20498;-61
2023/06/28 05:31:37;;;;;;;23.73;22.73;;;23.00;69.60;;;;;;4973075;28;20869;-62
2023/06/28 05:34:04;;;;;;;23.87;22.97;;;23.00;70.00;;;;;;4973247;28;20479;-61
2023/06/28 05:36:33;;;;;;;22.00;21.20;;;23.00;69.20;;;;;;4973188;28;20583;-62
2023/06/28 05:39:00;;;;;;;22.50;21.70;;;23.00;68.90;;;;;;4973307;28;20535;-61
2023/06/28 05:41:28;;;;;;;23.00;22.13;;;23.10;68.80;;;;;;4972860;28;20535;-62
2023/06/28 05:43:55;;;;;;;23.17;22.27;;;23.10;68.50;;;;;;4973068;28;20878;-61
2023/06/28 05:46:22;;;;;;;24.97;24.07;;;23.10;68.40;;;;;;4972859;28;20543;-62
2023/06/28 05:48:51;;;;;;;23.77;22.67;;;23.10;68.20;;;;;;4973197;28;20946;-62
2023/06/28 05:51:18;;;;;;;23.40;22.50;;;23.10;68.00;;;;;;4973425;28;20456;-62
2023/06/28 05:53:45;;;;;;;23.30;22.60;;;23.10;67.80;;;;;;4973825;28;20471;-62
2023/06/28 05:56:12;;;;;;;22.20;21.50;;;23.10;67.60;;;;;;4973044;28;21029;-61
2023/06/28 05:58:40;;;;;;;22.80;21.97;;;23.20;67.50;;;;;;4973351;28;20506;-62
2023/06/28 06:01:07;;;;;;;23.07;22.27;;;23.20;67.50;;;;;;4972903;28;20459;-62
2023/06/28 06:03:34;;;;;;;23.80;23.00;;;23.20;67.30;;;;;;4972570;28;20447;-58
2023/06/28 06:06:01;;;;;;;26.10;25.10;;;23.20;67.20;;;;;;4972326;28;20522;-57
2023/06/28 06:08:28;;;;;;;24.23;23.43;;;23.20;67.00;;;;;;4972420;28;20786;-54
2023/06/28 06:10:55;;;;;;;24.37;23.47;;;23.20;66.90;;;;;;4972392;28;20522;-57
2023/06/28 06:13:22;;;;;;;25.80;24.63;;;23.20;66.70;;;;;;4972338;28;20444;-58
2023/06/28 06:15:50;;;;;;;24.27;23.37;;;23.20;66.60;;;;;;4972144;28;20503;-56
2023/06/28 06:18:17;;;;;;;25.40;24.60;;;23.20;66.50;;;;;;4972361;28;20884;-57
2023/06/28 06:20:43;;;;;;;23.73;22.93;;;23.20;66.20;;;;;;4975179;28;20498;-53
2023/06/28 06:23:10;;;;;;;24.70;23.80;;;23.20;66.10;;;;;;4976052;28;20902;-52
2023/06/28 06:25:37;;;;;;;23.13;22.37;;;23.20;65.90;;;;;;4975673;28;20562;-55
2023/06/28 06:28:04;;;;;;;23.50;22.70;;;23.20;65.80;;;;;;4975762;28;20498;-54
2023/06/28 06:30:31;;;;;;;23.07;22.27;;;23.30;65.80;;;;;;4975794;28;20498;-57
2023/06/28 06:33:00;;;;;;;25.63;24.73;;;23.30;65.70;;;;;;4975746;28;20514;-53
2023/06/28 06:35:27;;;;;;;24.53;23.57;;;23.30;65.60;;;;;;4975421;28;20725;-59
2023/06/28 06:37:54;;;;;;;24.00;23.20;;;23.30;65.40;;;;;;4975491;28;20490;-56
2023/06/28 06:40:21;;;;;;;23.43;22.67;;;23.30;65.40;;;;;;4975674;28;20444;-60
2023/06/28 06:42:48;;;;;;;22.87;22.07;;;23.30;65.20;;;;;;4975635;28;20526;-52
2023/06/28 06:45:17;;;;;;;23.27;22.47;;;23.30;65.10;;;;;;4975336;28;21008;-58
2023/06/28 06:47:45;;;;;;;23.07;22.37;;;23.30;65.00;;;;;;4975447;28;20448;-58
2023/06/28 06:50:14;;;;;;;23.57;22.77;;;23.30;64.80;;;;;;4975440;28;20956;-55
2023/06/28 06:52:41;;;;;;;24.87;23.87;;;23.30;64.80;;;;;;4975440;28;20452;-59
2023/06/28 06:55:09;;;;;;;23.07;22.27;;;23.30;64.70;;;;;;4975451;28;20487;-59
2023/06/28 06:57:35;;;;;;;23.97;23.07;;;23.30;64.60;;;;;;4974849;28;20932;-58
2023/06/28 07:00:03;;;;;;;23.00;22.13;;;23.30;64.40;;;;;;4975387;28;20484;-56
2023/06/28 07:02:30;;;;;;;22.37;21.63;;;23.40;64.50;;;;;;4975353;28;20463;-56
2023/06/28 07:04:57;;;;;;;22.03;21.33;;;23.40;64.40;;;;;;4975090;28;20829;-57
2023/06/28 07:07:25;;;;;;;22.60;21.90;;;23.40;64.30;;;;;;4974922;28;20907;-61
2023/06/28 07:09:52;;;;;;;22.20;21.50;;;23.40;64.20;;;;;;4963253;28;20571;-59
2023/06/28 07:12:19;;;;;;;22.60;21.80;;;23.40;67.20;;;;;;4973438;28;20447;-61
2023/06/28 07:14:47;;;;;;;21.80;21.10;;;23.50;67.60;;;;;;4958635;28;20488;-61
2023/06/28 07:17:14;;;;;;;21.60;20.90;;;23.60;68.20;;;;;;4974600;28;20498;-60
2023/06/28 07:19:41;;;;;;;22.53;21.73;;;23.60;68.40;;;;;;4974663;28;20464;-61
2023/06/28 07:22:09;;;;;;;21.10;20.40;;;23.70;68.70;;;;;;4974324;28;20452;-62
2023/06/28 07:24:37;;;;;;;22.23;21.43;;;23.80;69.30;;;;;;4974862;28;20491;-61
2023/06/28 07:27:05;;;;;;;23.47;22.67;;;23.80;69.60;;;;;;4974508;28;21167;-61
2023/06/28 07:29:32;;;;;;;22.20;21.50;;;23.90;70.00;;;;;;4974791;28;20476;-63
2023/06/28 07:31:59;;;;;;;22.33;21.53;;;23.90;68.90;;;;;;4969886;28;20481;-62
2023/06/28 07:34:26;;;;;;;23.50;22.60;;;24.00;68.70;;;;;;4955418;28;20487;-60
2023/06/28 07:36:53;;;;;;;22.33;21.60;;;24.10;68.80;;;;;;4955032;28;20584;-61
2023/06/28 07:39:20;;;;;;;23.00;22.10;;;24.10;68.30;;;;;;4955274;28;20480;-59
2023/06/28 07:41:48;;;;;;;23.10;22.40;;;24.20;68.40;;;;;;4956405;28;20488;-62
2023/06/28 07:44:15;;;;;;;22.60;21.80;;;24.30;68.20;;;;;;4974462;28;20479;-60
2023/06/28 07:46:42;;;;;;;22.83;22.03;;;24.30;68.00;;;;;;4974236;28;20522;-60
2023/06/28 07:49:09;;;;;;;22.90;22.00;;;24.40;67.80;;;;;;4974354;28;20499;-59
2023/06/28 07:51:36;;;;;;;23.20;22.50;;;24.40;68.00;;;;;;4974013;28;20548;-60
2023/06/28 07:54:03;;;;;;;23.47;22.67;;;24.40;67.90;;;;;;4972918;28;20447;-56
2023/06/28 07:56:30;;;;;;;23.90;23.10;;;24.40;67.50;;;;;;4973796;28;20483;-61
2023/06/28 07:59:01;;;;;;;24.20;23.33;;;24.50;67.70;;;;;;4974210;28;20490;-59
2023/06/28 08:01:27;;;;;;;22.73;21.93;;;24.50;67.30;;;;;;4963124;28;20457;-59
2023/06/28 08:03:54;;;;;;;22.07;21.37;;;24.50;67.60;;;;;;4954769;28;20490;-63
2023/06/28 08:06:21;;;;;;;21.50;20.80;;;24.60;67.50;;;;;;4954395;28;20556;-60
2023/06/28 08:08:48;;;;;;;21.17;20.47;;;24.60;67.50;;;;;;4954729;28;20536;-61
2023/06/28 08:11:15;;;;;;;22.57;21.67;;;24.70;67.30;;;;;;4963410;28;20462;-59
2023/06/28 08:13:42;;;;;;;22.23;21.43;;;24.70;67.20;;;;;;4973909;28;20459;-61
2023/06/28 08:16:11;;;;;;;21.83;21.13;;;24.70;66.80;;;;;;4973578;28;20474;-60
2023/06/28 08:18:38;;;;;;;21.53;20.83;;;24.80;66.70;;;;;;4973558;28;20562;-60
2023/06/28 08:21:05;;;;;;;21.60;20.90;;;24.80;66.50;;;;;;4966124;28;20484;-61
2023/06/28 08:23:32;;;;;;;21.00;20.23;;;24.90;66.40;;;;;;4954270;28;20931;-60
2023/06/28 08:25:59;;;;;;;21.80;21.10;;;24.90;66.50;;;;;;4954036;28;20515;-62
2023/06/28 08:28:26;;;;;;;22.07;21.37;;;24.90;66.00;;;;;;4954430;28;20476;-62
2023/06/28 08:30:52;;;;;;;21.43;20.73;;;25.00;65.90;;;;;;4954262;28;20915;-64
2023/06/28 08:33:24;;;;;;;22.30;21.50;;;25.00;65.60;;;;;;4960920;28;20580;-62
2023/06/28 08:35:51;;;;;;;20.50;19.90;;;25.00;65.40;;;;;;4973259;28;20472;-63
2023/06/28 08:38:18;;;;;;;22.30;21.30;;;25.00;65.40;;;;;;4973444;28;20921;-62
2023/06/28 08:40:45;;;;;;;21.43;20.63;;;25.00;65.60;;;;;;4973399;28;20476;-61
2023/06/28 08:43:16;;;;;;;22.17;21.47;;;25.10;65.70;;;;;;4967365;28;20472;-63
2023/06/28 08:45:45;;;;;;;21.70;21.00;;;25.10;65.50;;;;;;4957697;28;20547;-63
2023/06/28 08:48:13;;;;;;;20.63;20.03;;;25.20;65.60;;;;;;4953987;28;20484;-62
2023/06/28 08:50:43;;;;;;;20.83;20.10;;;25.10;65.20;;;;;;4954019;28;20531;-63
2023/06/28 08:53:16;;;;;;;22.37;21.57;;;25.10;65.10;;;;;;4954031;28;20769;-63
2023/06/28 08:55:43;;;;;;;22.00;21.30;;;25.20;65.20;;;;;;4962653;28;20568;-62
2023/06/28 08:58:12;;;;;;;21.77;21.07;;;25.20;64.90;;;;;;4953835;28;20485;-62
2023/06/28 09:00:41;;;;;;;23.37;22.47;;;25.20;65.00;;;;;;4956858;28;20480;-61
2023/06/28 09:03:09;;;;;;;23.17;22.07;;;25.20;65.10;;;;;;4973185;28;20548;-62
2023/06/28 09:05:36;;;;;;;21.57;20.77;;;25.10;65.20;;;;;;4972791;28;20503;-62
2023/06/28 09:08:06;;;;;;;23.13;22.20;;;25.00;65.20;;;;;;4972944;28;20476;-61
2023/06/28 09:10:34;;;;;;;22.07;21.27;;;25.00;65.00;;;;;;4973135;28;20502;-60
2023/06/28 09:13:02;;;;;;;22.73;21.93;;;25.00;65.00;;;;;;4964569;28;20882;-60
2023/06/28 09:15:29;;;;;;;21.73;21.03;;;25.00;65.10;;;;;;4953384;28;20484;-62
2023/06/28 09:17:56;;;;;;;22.10;21.10;;;25.00;65.50;;;;;;4953643;28;20484;-62
2023/06/28 09:20:23;;;;;;;21.53;20.63;;;24.90;65.80;;;;;;4954640;28;20483;-62
2023/06/28 09:22:57;;;;;;;21.27;20.47;;;24.90;66.10;;;;;;4953470;28;20966;-63
2023/06/28 09:25:27;;;;;;;21.00;20.30;;;24.90;67.10;;;;;;4953341;28;20511;-63
2023/06/28 09:27:55;;;;;;;21.13;20.43;;;24.80;66.40;;;;;;4953458;28;20511;-65
2023/06/28 09:30:23;;;;;;;21.73;21.03;;;24.80;66.70;;;;;;4968944;28;20459;-64
2023/06/28 09:32:51;;;;;;;21.00;20.20;;;24.90;67.10;;;;;;4972773;28;20543;-63
2023/06/28 09:35:18;;;;;;;22.10;21.30;;;24.90;66.90;;;;;;4972542;28;20812;-64
2023/06/28 09:37:50;;;;;;;22.07;21.07;;;24.90;67.80;;;;;;4972614;28;20562;-62
2023/06/28 09:40:18;;;;;;;21.50;20.70;;;24.90;67.00;;;;;;4957548;28;20461;-63
2023/06/28 09:42:47;;;;;;;22.23;21.43;;;24.90;67.20;;;;;;4953247;28;20508;-60
2023/06/28 09:45:28;;;;;;;22.47;21.57;;;25.00;67.10;;;;;;4953174;28;20491;-64
2023/06/28 09:47:57;;;;;;;23.00;22.00;;;24.90;66.80;;;;;;4953125;28;20550;-64
2023/06/28 09:50:35;;;;;;;21.30;20.50;;;24.90;66.70;;;;;;4951877;28;20451;-64
2023/06/28 09:53:02;;;;;;;23.27;22.47;;;24.80;66.60;;;;;;4972274;28;20509;-63
2023/06/28 09:55:29;;;;;;;22.40;21.50;;;24.80;66.80;;;;;;4966946;28;20654;-63
2023/06/28 09:57:58;;;;;;;22.20;21.17;;;24.80;67.10;;;;;;4958064;28;20515;-63
2023/06/28 10:00:29;;;;;;;22.03;21.13;;;24.70;67.40;;;;;;4957200;28;20480;-64
2023/06/28 10:02:58;;;;;;;23.00;21.97;;;24.70;67.40;;;;;;4957004;28;20503;-64
2023/06/28 10:05:25;;;;;;;21.30;20.60;;;24.60;67.40;;;;;;4956922;28;20536;-65
2023/06/28 10:07:52;;;;;;;22.27;21.37;;;24.60;67.40;;;;;;4956907;28;20990;-64
2023/06/28 10:10:20;;;;;;;22.90;21.97;;;24.60;67.20;;;;;;4956905;28;20548;-64
2023/06/28 10:12:49;;;;;;;22.90;22.10;;;24.50;66.80;;;;;;4957127;28;20865;-64
2023/06/28 10:15:23;;;;;;;22.50;21.60;;;24.50;66.70;;;;;;4956846;28;20867;-65
2023/06/28 10:17:50;;;;;;;22.30;21.40;;;24.50;66.80;;;;;;4956613;28;20492;-64
2023/06/28 10:20:18;;;;;;;21.60;20.63;;;24.40;66.60;;;;;;4956714;28;20821;-64
2023/06/28 10:22:46;;;;;;;22.97;21.70;;;24.40;66.50;;;;;;4956780;28;20548;-63
2023/06/28 10:25:14;;;;;;;22.27;21.47;;;24.40;66.50;;;;;;4956737;28;20969;-65
2023/06/28 10:27:42;;;;;;;21.93;21.20;;;24.40;66.50;;;;;;4956479;28;20512;-64
2023/06/28 10:30:10;;;;;;;21.90;21.10;;;24.40;66.40;;;;;;4956524;28;20459;-64
2023/06/28 10:32:38;;;;;;;21.73;20.83;;;24.40;66.20;;;;;;4956596;28;20540;-64
2023/06/28 10:35:08;;;;;;;21.77;20.97;;;24.30;66.00;;;;;;4956507;28;20481;-65
2023/06/28 10:37:35;;;;;;;21.70;20.90;;;24.40;66.20;;;;;;4956367;28;20527;-64
2023/06/28 10:40:04;;;;;;;22.50;21.70;;;24.30;66.00;;;;;;4956454;28;20448;-65
2023/06/28 10:42:39;;;;;;;22.73;21.73;;;24.30;66.00;;;;;;4956466;28;20449;-65
2023/06/28 10:45:08;;;;;;;23.20;22.40;;;24.30;65.90;;;;;;4956325;28;20452;-64
2023/06/28 10:47:35;;;;;;;22.60;21.70;;;24.30;65.90;;;;;;4956338;28;20476;-64
2023/06/28 10:50:09;;;;;;;21.20;20.40;;;24.30;65.80;;;;;;4956376;28;20495;-65
2023/06/28 10:52:43;;;;;;;22.50;21.60;;;24.30;65.80;;;;;;4956229;28;20539;-64
2023/06/28 10:55:11;;;;;;;21.43;20.60;;;24.30;65.70;;;;;;4956249;28;20814;-64
2023/06/28 10:57:39;;;;;;;21.37;20.67;;;24.30;65.80;;;;;;5003676;23;20831;-65
2023/06/28 11:00:10;;;;;;;22.60;21.57;;;24.30;65.70;;;;;;4994785;28;20482;-65
2023/06/28 11:02:55;;;;;;;22.10;21.30;;;24.20;65.60;;;;;;4994731;28;20820;-65
2023/06/28 11:05:41;;;;;;;22.27;21.47;;;24.20;65.70;;;;;;4994307;28;20451;-65
2023/06/28 11:08:09;;;;;;;21.17;20.37;;;24.20;65.70;;;;;;4975101;28;20447;-65
2023/06/28 11:10:40;;;;;;;21.87;20.97;;;24.30;65.60;;;;;;4975136;28;20863;-65
2023/06/28 11:13:09;;;;;;;21.53;20.73;;;24.20;65.50;;;;;;4975253;28;20486;-65
2023/06/28 11:15:38;;;;;;;22.97;21.97;;;24.20;65.70;;;;;;4974814;28;20448;-65
2023/06/28 11:18:12;;;;;;;22.93;21.97;;;24.20;65.80;;;;;;4974937;28;20514;-64
2023/06/28 11:20:52;;;;;;;22.97;22.03;;;24.20;65.80;;;;;;4975173;28;20475;-65
2023/06/28 11:23:29;;;;;;;24.50;23.43;;;24.20;65.70;;;;;;4974998;28;20533;-65
2023/06/28 11:25:57;;;;;;;22.20;21.40;;;24.20;65.80;;;;;;4974675;28;20628;-65
2023/06/28 11:28:29;;;;;;;21.70;21.00;;;24.20;65.90;;;;;;4974801;28;20452;-65
2023/06/28 11:30:56;;;;;;;22.73;21.93;;;24.20;65.70;;;;;;4974815;28;20881;-65
2023/06/28 11:33:24;;;;;;;21.50;20.80;;;24.20;65.60;;;;;;4974807;28;20447;-65
2023/06/28 11:35:53;;;;;;;23.13;22.10;;;24.20;65.60;;;;;;4974440;28;20495;-65
2023/06/28 11:38:21;;;;;;;21.90;21.10;;;24.20;65.60;;;;;;4974516;28;21013;-65
2023/06/28 11:40:48;;;;;;;22.10;21.30;;;24.20;65.60;;;;;;4974706;28;20872;-65
2023/06/28 11:43:21;;;;;;;22.53;21.60;;;24.20;65.50;;;;;;4974587;28;20542;-65
2023/06/28 11:45:50;;;;;;;25.40;24.33;;;24.30;65.50;;;;;;4974278;28;20444;-65
2023/06/28 11:48:17;;;;;;;23.77;22.90;;;24.20;65.40;;;;;;4974463;28;20954;-65
2023/06/28 11:50:44;;;;;;;22.27;21.40;;;24.20;65.40;;;;;;4974588;28;20883;-65
2023/06/28 11:53:13;;;;;;;23.00;22.10;;;24.20;65.60;;;;;;4974583;28;20502;-65
2023/06/28 11:55:40;;;;;;;23.10;22.20;;;24.20;65.60;;;;;;4974137;28;20440;-65
2023/06/28 11:58:07;;;;;;;24.17;23.37;;;24.20;65.60;;;;;;4974182;28;21095;-65
2023/06/28 12:00:40;;;;;;;24.50;23.60;;;24.20;65.60;;;;;;4974326;28;20542;-65
2023/06/28 12:03:07;;;;;;;23.00;22.20;;;24.20;65.50;;;;;;4974189;28;20487;-65
2023/06/28 12:05:34;;;;;;;21.83;21.03;;;24.30;65.50;;;;;;4973922;28;20483;-65
2023/06/28 12:08:01;;;;;;;23.10;22.20;;;24.20;65.40;;;;;;4974107;28;20452;-65
2023/06/28 12:10:36;;;;;;;23.83;23.00;;;24.30;65.60;;;;;;4974092;28;20490;-65
2023/06/28 12:13:03;;;;;;;22.13;21.23;;;24.30;65.60;;;;;;4973968;28;20471;-65
2023/06/28 12:15:30;;;;;;;22.63;21.73;;;24.20;65.50;;;;;;4973930;28;20451;-65
2023/06/28 12:17:57;;;;;;;22.07;21.27;;;24.30;65.60;;;;;;4973073;28;20877;-65
2023/06/28 12:20:24;;;;;;;22.70;21.90;;;24.30;65.50;;;;;;4974023;28;20875;-64
2023/06/28 12:22:51;;;;;;;22.23;21.33;;;24.20;65.50;;;;;;4973826;28;20531;-65
2023/06/28 12:25:27;;;;;;;23.73;22.50;;;24.30;65.80;;;;;;4973731;28;20483;-65
2023/06/28 12:28:03;;;;;;;22.10;21.20;;;24.30;65.80;;;;;;4973651;28;20482;-64
2023/06/28 12:30:30;;;;;;;21.07;20.37;;;24.30;65.80;;;;;;4973605;28;20498;-64
2023/06/28 12:32:59;;;;;;;21.70;20.90;;;24.30;65.70;;;;;;4973479;28;20498;-65